createdAt,value
2023-09-14T00:01:44.088Z,4.80
2023-09-14T00:04:13.113Z,3.42
2023-09-14T00:06:41.233Z,4.47
2023-09-14T00:09:08.640Z,4.15
2023-09-14T00:11:36.689Z,3.90
2023-09-14T00:14:04.101Z,4.80
2023-09-14T00:16:32.009Z,4.47
2023-09-14T00:18:59.479Z,4.82
2023-09-14T00:21:28.804Z,4.47
2023-09-14T00:23:56.089Z,4.93
2023-09-14T00:26:23.826Z,5.00
2023-09-14T00:28:51.243Z,4.15
2023-09-14T00:31:19.083Z,5.72
2023-09-14T00:33:46.485Z,4.60
2023-09-14T00:36:14.221Z,4.13
2023-09-14T00:38:43.087Z,4.50
2023-09-14T00:41:10.984Z,5.00
2023-09-14T00:43:38.272Z,4.95
2023-09-14T00:46:09.215Z,4.93
2023-09-14T00:48:36.600Z,5.85
2023-09-14T00:51:04.707Z,4.95
2023-09-14T00:53:32.316Z,4.72
2023-09-14T00:56:04.136Z,6.25
2023-09-14T00:58:31.632Z,5.32
2023-09-14T01:01:03.698Z,5.38
2023-09-14T01:03:31.853Z,5.10
2023-09-14T01:05:59.701Z,7.90
2023-09-14T01:08:27.420Z,6.07
2023-09-14T01:10:55.364Z,7.70
2023-09-14T01:13:32.188Z,9.82
2023-09-14T01:16:14.493Z,8.05
2023-09-14T01:18:47.452Z,7.78
2023-09-14T01:21:41.710Z,6.57
2023-09-14T01:24:21.321Z,5.15
2023-09-14T01:26:51.573Z,4.63
2023-09-14T01:29:19.034Z,4.32
2023-09-14T01:31:46.705Z,6.45
2023-09-14T01:34:14.540Z,4.75
2023-09-14T01:36:49.601Z,5.20
2023-09-14T01:39:17.937Z,5.07
2023-09-14T01:41:45.942Z,4.88
2023-09-14T01:44:19.292Z,5.20
2023-09-14T01:46:47.803Z,5.60
2023-09-14T01:49:15.266Z,6.22
2023-09-14T01:51:43.079Z,6.53
2023-09-14T01:54:10.394Z,5.57
2023-09-14T01:56:38.144Z,4.90
2023-09-14T01:59:05.567Z,4.70
2023-09-14T02:01:43.410Z,5.18
2023-09-14T02:04:21.564Z,5.07
2023-09-14T02:06:54.194Z,5.65
2023-09-14T02:09:24.739Z,4.93
2023-09-14T02:11:52.629Z,5.28
2023-09-14T02:14:20.014Z,4.70
2023-09-14T02:16:53.011Z,4.82
2023-09-14T02:19:20.421Z,6.35
2023-09-14T02:21:48.347Z,6.20
2023-09-14T02:24:15.802Z,4.82
2023-09-14T02:26:48.404Z,6.20
2023-09-14T02:29:15.822Z,5.43
2023-09-14T02:31:44.160Z,5.22
2023-09-14T02:34:13.229Z,6.93
2023-09-14T02:36:41.186Z,5.75
2023-09-14T02:39:11.303Z,6.93
2023-09-14T02:41:39.083Z,6.35
2023-09-14T02:44:06.782Z,6.65
2023-09-14T02:46:34.817Z,5.32
2023-09-14T02:49:03.002Z,6.57
2023-09-14T02:51:32.284Z,5.25
2023-09-14T02:53:59.699Z,6.43
2023-09-14T02:56:27.458Z,5.97
2023-09-14T02:58:54.842Z,5.78
2023-09-14T03:01:22.723Z,5.93
2023-09-14T03:03:50.455Z,5.82
2023-09-14T03:06:18.488Z,4.68
2023-09-14T03:08:51.813Z,4.97
2023-09-14T03:11:19.671Z,6.72
2023-09-14T03:13:47.048Z,5.72
2023-09-14T03:16:23.548Z,5.25
2023-09-14T03:18:51.056Z,6.05
2023-09-14T03:21:29.363Z,5.22
2023-09-14T03:23:58.369Z,5.40
2023-09-14T03:26:26.349Z,5.72
2023-09-14T03:28:54.169Z,5.25
2023-09-14T03:31:22.506Z,6.03
2023-09-14T03:33:52.336Z,6.40
2023-09-14T03:36:20.782Z,5.07
2023-09-14T03:38:53.356Z,5.55
2023-09-14T03:41:31.377Z,5.85
2023-09-14T03:43:58.928Z,7.13
2023-09-14T03:46:28.812Z,6.35
2023-09-14T03:48:56.486Z,8.32
2023-09-14T03:51:24.833Z,7.93
2023-09-14T03:53:57.969Z,6.97
2023-09-14T03:56:27.294Z,8.63
2023-09-14T03:58:54.696Z,7.00
2023-09-14T04:01:22.753Z,7.38
2023-09-14T04:03:51.932Z,6.90
2023-09-14T04:06:21.042Z,7.90
2023-09-14T04:08:48.678Z,8.00
2023-09-14T04:11:16.604Z,7.50
2023-09-14T04:13:45.527Z,7.20
2023-09-14T04:16:13.539Z,6.20
2023-09-14T04:18:41.154Z,8.85
2023-09-14T04:21:08.963Z,8.63
2023-09-14T04:23:36.434Z,7.47
2023-09-14T04:26:04.507Z,10.18
2023-09-14T04:28:31.893Z,7.57
2023-09-14T04:31:01.482Z,7.15
2023-09-14T04:33:29.165Z,7.30
2023-09-14T04:35:57.429Z,8.70
2023-09-14T04:38:24.858Z,4.80
2023-09-14T04:40:52.714Z,5.43
2023-09-14T04:43:20.164Z,5.05
2023-09-14T04:45:48.004Z,4.15
2023-09-14T04:48:16.946Z,3.75
2023-09-14T04:50:44.849Z,3.60
2023-09-14T04:53:12.296Z,3.00
2023-09-14T04:55:40.224Z,3.53
2023-09-14T04:58:08.003Z,3.63
2023-09-14T05:00:35.942Z,3.17
2023-09-14T05:03:03.802Z,3.00
2023-09-14T05:05:33.778Z,4.57
2023-09-14T05:08:01.498Z,2.90
2023-09-14T05:10:45.473Z,5.05
2023-09-14T05:13:24.202Z,3.65
2023-09-14T05:16:03.380Z,3.05
2023-09-14T05:21:03.304Z,5.00
2023-09-14T05:23:30.627Z,3.78
2023-09-14T05:25:58.384Z,4.95
2023-09-14T05:28:25.830Z,4.20
2023-09-14T05:30:53.756Z,3.92
2023-09-14T05:33:21.138Z,5.07
2023-09-14T05:35:49.256Z,4.05
2023-09-14T05:38:18.170Z,4.32
2023-09-14T05:40:45.970Z,5.88
2023-09-14T05:43:13.621Z,3.38
2023-09-14T05:45:42.810Z,4.40
2023-09-14T05:48:10.335Z,3.50
2023-09-14T05:50:38.272Z,3.60
2023-09-14T05:53:05.641Z,3.90
2023-09-14T05:55:34.998Z,5.45
2023-09-14T05:58:04.638Z,3.50
2023-09-14T06:00:32.463Z,6.00
2023-09-14T06:03:00.206Z,7.60
2023-09-14T06:05:28.297Z,5.00
2023-09-14T06:07:56.141Z,10.05
2023-09-14T06:10:23.980Z,5.32
2023-09-14T06:12:52.860Z,7.18
2023-09-14T06:15:20.834Z,3.67
2023-09-14T06:17:48.639Z,5.78
2023-09-14T06:20:16.989Z,4.45
2023-09-14T06:22:44.464Z,4.40
2023-09-14T06:25:12.337Z,4.80
2023-09-14T06:27:39.847Z,7.78
2023-09-14T06:30:10.541Z,3.65
2023-09-14T06:32:38.055Z,5.47
2023-09-14T06:35:06.879Z,5.13
2023-09-14T06:37:34.322Z,6.13
2023-09-14T06:40:02.260Z,4.88
2023-09-14T06:42:29.724Z,4.25
2023-09-14T06:44:57.534Z,3.95
2023-09-14T06:47:26.367Z,6.20
2023-09-14T06:49:54.057Z,5.00
2023-09-14T06:52:21.519Z,6.20
2023-09-14T06:54:49.377Z,8.40
2023-09-14T06:57:16.955Z,4.57
2023-09-14T06:59:44.927Z,8.18
2023-09-14T07:02:12.477Z,8.30
2023-09-14T07:04:41.881Z,7.07
2023-09-14T07:07:09.641Z,6.32
2023-09-14T07:09:37.462Z,7.68
2023-09-14T07:12:05.690Z,7.20
2023-09-14T07:14:35.250Z,6.43
2023-09-14T07:17:03.229Z,8.18
2023-09-14T07:19:31.281Z,6.97
2023-09-14T07:22:00.296Z,6.68
2023-09-14T07:24:28.304Z,8.07
2023-09-14T07:26:55.857Z,6.68
2023-09-14T07:29:23.523Z,7.47
2023-09-14T07:31:51.026Z,6.40
2023-09-14T07:34:18.865Z,6.95
2023-09-14T07:36:46.436Z,7.00
2023-09-14T07:39:15.795Z,8.88
2023-09-14T07:41:43.713Z,8.93
2023-09-14T07:44:11.600Z,6.97
2023-09-14T07:46:39.334Z,7.13
2023-09-14T07:49:07.212Z,8.63
2023-09-14T07:51:34.627Z,8.02
2023-09-14T07:54:02.616Z,10.23
2023-09-14T07:56:31.597Z,8.27
2023-09-14T07:58:59.414Z,9.20
2023-09-14T08:01:26.942Z,8.38
2023-09-14T08:03:54.978Z,11.13
2023-09-14T08:06:24.527Z,9.07
2023-09-14T08:08:52.770Z,9.50
2023-09-14T08:11:20.271Z,9.10
2023-09-14T08:13:49.327Z,8.45
2023-09-14T08:16:16.881Z,9.10
2023-09-14T08:18:44.891Z,7.97
2023-09-14T08:21:12.215Z,7.97
2023-09-14T08:23:40.004Z,8.55
2023-09-14T08:26:07.491Z,8.65
2023-09-14T08:28:35.356Z,7.28
2023-09-14T08:31:04.314Z,7.88
2023-09-14T08:33:32.187Z,8.73
2023-09-14T08:35:59.828Z,10.07
2023-09-14T08:38:27.587Z,8.75
2023-09-14T08:40:58.414Z,13.93
2023-09-14T08:43:26.235Z,10.95
2023-09-14T08:45:54.895Z,10.75
2023-09-14T08:48:27.366Z,11.60
2023-09-14T08:50:55.859Z,12.23
2023-09-14T08:53:24.704Z,10.57
2023-09-14T08:55:52.276Z,10.77
2023-09-14T08:58:21.518Z,9.75
2023-09-14T09:00:49.190Z,12.23
2023-09-14T09:03:17.216Z,12.88
2023-09-14T09:05:46.673Z,10.40
2023-09-14T09:08:15.040Z,10.32
2023-09-14T09:10:43.882Z,9.98
2023-09-14T09:13:12.478Z,11.55
2023-09-14T09:15:39.897Z,11.45
2023-09-14T09:18:09.158Z,9.70
2023-09-14T09:20:38.488Z,10.30
2023-09-14T09:23:08.589Z,12.52
2023-09-14T09:25:47.207Z,13.00
2023-09-14T09:28:29.308Z,13.85
2023-09-14T09:31:01.623Z,11.70
2023-09-14T09:33:35.839Z,10.75
2023-09-14T09:36:20.396Z,9.88
2023-09-14T09:38:53.704Z,8.77
2023-09-14T09:41:21.288Z,11.77
2023-09-14T09:43:50.458Z,9.95
2023-09-14T09:46:22.818Z,11.25
2023-09-14T09:48:51.084Z,9.70
2023-09-14T09:51:21.510Z,11.20
2023-09-14T09:54:08.360Z,9.00
2023-09-14T09:56:36.620Z,9.68
2023-09-14T09:59:04.900Z,9.90
2023-09-14T10:01:32.476Z,10.10
2023-09-14T10:04:00.744Z,11.38
2023-09-14T10:06:28.498Z,8.65
2023-09-14T10:08:56.954Z,8.38
2023-09-14T10:11:26.267Z,10.25
2023-09-14T10:13:54.485Z,10.98
2023-09-14T10:16:23.764Z,9.18
2023-09-14T10:18:59.421Z,9.57
2023-09-14T10:21:28.880Z,9.82
2023-09-14T10:23:57.451Z,11.57
2023-09-14T10:26:30.774Z,13.55
2023-09-14T10:28:58.626Z,9.75
2023-09-14T10:31:27.100Z,9.80
2023-09-14T10:33:56.246Z,8.60
2023-09-14T10:36:23.876Z,9.15
2023-09-14T10:38:52.165Z,8.32
2023-09-14T10:41:19.834Z,11.23
2023-09-14T10:43:59.424Z,9.70
2023-09-14T10:46:31.595Z,8.98
2023-09-14T10:49:05.247Z,16.42
2023-09-14T10:51:37.547Z,7.32
2023-09-14T10:54:10.234Z,8.57
2023-09-14T10:56:37.777Z,10.07
2023-09-14T10:59:14.887Z,9.85
2023-09-14T11:01:53.902Z,10.18
2023-09-14T11:04:23.667Z,9.70
2023-09-14T11:06:54.388Z,8.68
2023-09-14T11:09:29.721Z,6.50
2023-09-14T11:11:59.762Z,8.60
2023-09-14T11:14:32.116Z,8.43
2023-09-14T11:17:04.897Z,8.13
2023-09-14T11:19:55.647Z,8.95
2023-09-14T11:22:29.567Z,7.95
2023-09-14T11:25:00.595Z,7.88
2023-09-14T11:27:33.684Z,8.05
2023-09-14T11:30:14.734Z,6.70
2023-09-14T11:32:48.737Z,9.50
2023-09-14T11:35:19.246Z,8.02
2023-09-14T11:37:50.167Z,7.85
2023-09-14T11:40:25.782Z,9.25
2023-09-14T11:53:34.984Z,9.35
2023-09-14T11:56:04.635Z,10.38
2023-09-14T11:58:34.193Z,8.30
2023-09-14T12:01:07.922Z,8.85
2023-09-14T12:03:43.482Z,8.35
2023-09-14T12:06:11.739Z,7.03
2023-09-14T12:08:46.631Z,8.57
2023-09-14T12:11:14.658Z,7.47
2023-09-14T12:13:50.175Z,9.13
2023-09-14T12:16:22.612Z,5.40
2023-09-14T12:18:51.066Z,7.68
2023-09-14T12:21:20.458Z,8.23
2023-09-14T12:23:59.509Z,7.43
2023-09-14T12:26:27.594Z,6.40
2023-09-14T12:28:59.261Z,8.75
2023-09-14T12:31:29.233Z,5.60
2023-09-14T12:33:56.811Z,7.70
2023-09-14T12:36:25.169Z,6.55
2023-09-14T12:38:53.013Z,8.77
2023-09-14T12:41:21.072Z,7.43
2023-09-14T12:43:48.891Z,10.75
2023-09-14T12:46:20.963Z,10.00
2023-09-14T12:49:00.424Z,6.65
2023-09-14T12:51:28.566Z,5.93
2023-09-14T12:53:57.067Z,8.77
2023-09-14T12:56:25.732Z,6.90
2023-09-14T12:59:02.664Z,6.85
2023-09-14T13:01:30.627Z,7.38
2023-09-14T13:04:05.454Z,6.93
2023-09-14T13:06:38.029Z,7.90
2023-09-14T13:09:07.211Z,8.13
2023-09-14T13:11:36.350Z,5.78
2023-09-14T13:14:11.426Z,7.35
2023-09-14T13:16:53.999Z,8.38
2023-09-14T13:19:23.253Z,4.88
2023-09-14T13:21:51.123Z,8.50
2023-09-14T13:24:23.468Z,6.10
2023-09-14T13:26:56.229Z,6.45
2023-09-14T13:29:23.648Z,7.30
2023-09-14T13:31:51.478Z,6.30
2023-09-14T13:34:23.410Z,5.50
2023-09-14T13:36:55.009Z,7.35
2023-09-14T13:39:22.526Z,6.22
2023-09-14T13:41:52.685Z,6.18
2023-09-14T13:44:21.268Z,5.63
2023-09-14T13:46:49.080Z,9.57
2023-09-14T13:49:22.800Z,5.07
2023-09-14T13:52:11.396Z,6.40
2023-09-14T13:54:38.878Z,4.72
2023-09-14T13:57:06.734Z,6.32
2023-09-14T13:59:34.363Z,6.47
2023-09-14T14:02:02.471Z,7.15
2023-09-14T14:04:30.009Z,5.20
2023-09-14T14:06:57.784Z,4.93
2023-09-14T14:09:26.725Z,5.75
2023-09-14T14:11:58.395Z,5.85
2023-09-14T14:14:36.700Z,4.63
2023-09-14T14:17:05.692Z,5.50
2023-09-14T14:19:33.215Z,4.85
2023-09-14T14:22:01.394Z,6.82
2023-09-14T14:24:30.401Z,4.78
2023-09-14T14:26:58.621Z,4.35
2023-09-14T14:29:26.044Z,6.57
2023-09-14T14:31:53.989Z,5.93
2023-09-14T14:34:21.409Z,5.63
2023-09-14T14:36:49.194Z,4.55
2023-09-14T14:39:16.862Z,4.82
2023-09-14T14:41:46.951Z,4.93
2023-09-14T14:44:17.488Z,5.10
2023-09-14T14:46:45.443Z,7.07
2023-09-14T14:49:12.778Z,5.95
2023-09-14T14:51:40.781Z,6.72
2023-09-14T14:54:08.282Z,7.57
2023-09-14T14:56:36.129Z,7.60
2023-09-14T14:59:05.408Z,8.20
2023-09-14T15:01:33.516Z,6.43
2023-09-14T15:04:01.076Z,6.32
2023-09-14T15:06:34.186Z,6.03
2023-09-14T15:09:01.699Z,5.55
2023-09-14T15:11:29.585Z,5.32
2023-09-14T15:13:57.043Z,4.80
2023-09-14T15:16:26.472Z,5.60
2023-09-14T15:18:54.041Z,5.15
2023-09-14T15:21:21.799Z,5.55
2023-09-14T15:23:50.047Z,9.73
2023-09-14T15:26:17.766Z,10.43
2023-09-14T15:28:45.660Z,9.30
2023-09-14T15:31:14.328Z,4.45
2023-09-14T15:33:46.626Z,5.20
2023-09-14T15:36:17.552Z,6.63
2023-09-14T15:38:45.464Z,6.80
2023-09-14T15:41:16.648Z,5.90
2023-09-14T15:43:47.204Z,5.63
2023-09-14T15:46:18.678Z,5.45
2023-09-14T15:48:50.729Z,4.68
2023-09-14T15:51:20.484Z,13.48
2023-09-14T15:53:47.827Z,13.05
2023-09-14T15:56:15.692Z,11.20
2023-09-14T15:58:43.199Z,13.73
2023-09-14T16:01:11.207Z,8.25
2023-09-14T16:03:39.054Z,6.22
2023-09-14T16:06:08.610Z,10.52
2023-09-14T16:08:35.924Z,7.97
2023-09-14T16:11:03.737Z,8.05
2023-09-14T16:13:33.021Z,7.47
2023-09-14T16:16:01.041Z,7.75
2023-09-14T16:18:30.448Z,5.00
2023-09-14T16:20:58.345Z,5.93
2023-09-14T16:23:28.292Z,4.60
2023-09-14T16:26:00.369Z,4.40
2023-09-14T16:31:01.607Z,5.65
2023-09-14T16:33:29.185Z,6.57
2023-09-14T16:36:09.546Z,4.80
2023-09-14T16:38:42.401Z,5.55
2023-09-14T16:41:11.736Z,6.00
2023-09-14T16:43:39.222Z,6.78
2023-09-14T16:46:07.810Z,6.13
2023-09-14T16:48:36.749Z,4.63
2023-09-14T16:51:04.809Z,4.47
2023-09-14T16:53:32.309Z,6.32
2023-09-14T16:56:01.821Z,5.72
2023-09-14T16:58:33.821Z,5.53
2023-09-14T17:01:01.905Z,5.50
2023-09-14T17:03:32.001Z,4.82
2023-09-14T17:06:00.265Z,7.53
2023-09-14T17:08:32.484Z,8.27
2023-09-14T17:11:01.924Z,5.78
2023-09-14T17:13:32.241Z,6.47
2023-09-14T17:16:00.165Z,6.68
2023-09-14T17:18:27.743Z,5.28
2023-09-14T17:20:57.458Z,5.15
2023-09-14T17:23:24.957Z,7.35
2023-09-14T17:25:52.926Z,4.72
2023-09-14T17:30:57.648Z,4.45
2023-09-14T17:33:27.958Z,5.97
2023-09-14T17:36:05.342Z,8.05
2023-09-14T17:38:32.972Z,5.80
2023-09-14T17:41:00.840Z,4.72
2023-09-14T17:43:32.849Z,6.68
2023-09-14T17:46:01.652Z,5.60
2023-09-14T17:48:33.414Z,5.25
2023-09-14T17:51:01.529Z,5.10
2023-09-14T17:53:32.034Z,5.55
2023-09-14T17:55:59.854Z,6.53
2023-09-14T17:58:36.375Z,5.38
2023-09-14T18:01:04.214Z,8.02
2023-09-14T18:03:32.075Z,6.60
2023-09-14T18:05:59.868Z,5.72
2023-09-14T18:08:27.355Z,6.75
2023-09-14T18:10:55.212Z,5.10
2023-09-14T18:13:22.723Z,7.60
2023-09-14T18:15:54.993Z,6.75
2023-09-14T18:20:50.777Z,8.05
2023-09-14T18:23:18.311Z,5.82
2023-09-14T18:25:51.572Z,5.32
2023-09-14T18:28:34.573Z,6.82
2023-09-14T18:31:27.629Z,8.00
2023-09-14T18:33:55.174Z,7.60
2023-09-14T18:36:26.011Z,7.82
2023-09-14T18:38:53.534Z,6.25
2023-09-14T18:41:21.994Z,6.55
2023-09-14T18:43:49.454Z,8.90
2023-09-14T18:46:23.188Z,4.88
2023-09-14T18:48:54.147Z,8.48
2023-09-14T18:51:22.137Z,7.63
2023-09-14T18:53:52.590Z,8.77
2023-09-14T18:56:41.159Z,9.65
2023-09-14T18:59:32.721Z,7.47
2023-09-14T19:02:06.791Z,6.57
2023-09-14T19:04:42.363Z,5.13
2023-09-14T19:07:13.436Z,12.00
2023-09-14T19:09:43.656Z,5.80
2023-09-14T19:12:13.281Z,9.88
2023-09-14T19:14:46.924Z,10.85
2023-09-14T19:17:19.668Z,13.23
2023-09-14T19:19:55.226Z,9.05
2023-09-14T19:22:31.631Z,6.07
2023-09-14T19:24:59.129Z,5.25
2023-09-14T19:27:27.034Z,6.90
2023-09-14T19:29:54.850Z,6.47
2023-09-14T19:32:30.508Z,6.28
2023-09-14T19:34:58.790Z,6.43
2023-09-14T19:37:27.446Z,8.40
2023-09-14T19:39:54.877Z,7.38
2023-09-14T19:42:22.729Z,6.57
2023-09-14T19:44:50.528Z,8.93
2023-09-14T19:47:18.437Z,8.90
2023-09-14T19:49:49.198Z,12.25
2023-09-14T19:52:17.010Z,8.52
2023-09-14T19:54:44.630Z,7.72
2023-09-14T19:57:12.619Z,11.18
2023-09-14T19:59:39.944Z,8.05
2023-09-14T20:02:07.839Z,15.13
2023-09-14T20:04:36.604Z,10.90
2023-09-14T20:07:10.099Z,16.00
2023-09-14T20:09:37.546Z,7.30
2023-09-14T20:12:05.725Z,11.00
2023-09-14T20:14:33.298Z,7.80
2023-09-14T20:17:01.566Z,10.15
2023-09-14T20:19:29.683Z,11.23
2023-09-14T20:21:57.691Z,11.27
2023-09-14T20:24:30.070Z,12.05
2023-09-14T20:26:58.246Z,8.45
2023-09-14T20:29:25.658Z,9.35
2023-09-14T20:31:53.508Z,10.35
2023-09-14T20:34:20.915Z,10.40
2023-09-14T20:36:48.661Z,10.68
2023-09-14T20:39:16.104Z,7.53
2023-09-14T20:41:45.376Z,7.18
2023-09-14T20:44:12.826Z,12.55
2023-09-14T20:46:40.851Z,6.28
2023-09-14T20:49:08.487Z,8.60
2023-09-14T20:51:36.264Z,7.55
2023-09-14T20:54:03.839Z,6.88
2023-09-14T20:56:31.951Z,8.27
2023-09-14T20:59:01.009Z,14.02
2023-09-14T21:01:36.298Z,12.45
2023-09-14T21:04:03.939Z,7.32
2023-09-14T21:06:31.720Z,15.60
2023-09-14T21:08:59.361Z,7.72
2023-09-14T21:11:27.176Z,8.02
2023-09-14T21:13:54.692Z,9.50
2023-09-14T21:16:23.996Z,11.75
2023-09-14T21:18:51.403Z,9.13
2023-09-14T21:21:19.189Z,9.27
2023-09-14T21:23:46.652Z,8.90
2023-09-14T21:26:14.515Z,8.10
2023-09-14T21:28:41.932Z,7.60
2023-09-14T21:31:09.949Z,10.52
2023-09-14T21:33:38.872Z,9.82
2023-09-14T21:36:07.453Z,8.88
2023-09-14T21:38:34.939Z,9.38
2023-09-14T21:41:04.261Z,10.25
2023-09-14T21:43:33.306Z,6.60
2023-09-14T21:46:01.176Z,7.07
2023-09-14T21:48:28.686Z,10.60
2023-09-14T21:51:02.173Z,9.63
2023-09-14T21:53:29.808Z,9.75
2023-09-14T21:55:57.940Z,7.20
2023-09-14T21:58:25.830Z,8.77
2023-09-14T22:00:53.928Z,6.40
2023-09-14T22:03:21.490Z,8.30
2023-09-14T22:05:49.967Z,8.82
2023-09-14T22:08:19.035Z,6.63
2023-09-14T22:11:00.150Z,8.07
2023-09-14T22:13:27.655Z,12.73
2023-09-14T22:15:59.449Z,6.43
2023-09-14T22:18:27.252Z,6.22
2023-09-14T22:20:57.006Z,10.15
2023-09-14T22:23:26.116Z,7.10
2023-09-14T22:25:54.015Z,5.70
2023-09-14T22:28:23.868Z,7.60
2023-09-14T22:30:51.834Z,14.93
2023-09-14T22:33:19.304Z,11.05
2023-09-14T22:35:47.070Z,8.48
2023-09-14T22:38:14.637Z,7.93
2023-09-14T22:40:44.024Z,9.75
2023-09-14T22:43:11.505Z,6.57
2023-09-14T22:45:39.146Z,5.47
2023-09-14T22:48:07.149Z,7.45
2023-09-14T22:50:35.165Z,8.73
2023-09-14T22:53:02.797Z,9.60
2023-09-14T22:55:31.139Z,6.88
2023-09-14T22:57:59.915Z,8.98
2023-09-14T23:00:30.736Z,8.70
2023-09-14T23:02:58.273Z,4.90
2023-09-14T23:05:31.080Z,7.00
2023-09-14T23:07:58.515Z,9.05
2023-09-14T23:10:26.220Z,12.43
2023-09-14T23:12:53.738Z,6.78
2023-09-14T23:15:23.139Z,6.28
2023-09-14T23:17:50.821Z,6.70
2023-09-14T23:20:18.792Z,8.20
2023-09-14T23:22:46.270Z,9.27
2023-09-14T23:25:14.225Z,7.05
2023-09-14T23:27:41.740Z,9.60
2023-09-14T23:30:10.060Z,7.45
2023-09-14T23:32:38.818Z,7.95
2023-09-14T23:35:07.513Z,7.30
2023-09-14T23:37:35.302Z,8.60
2023-09-14T23:40:03.176Z,10.55
2023-09-14T23:42:30.683Z,8.40
2023-09-14T23:44:58.450Z,7.45
2023-09-14T23:47:25.866Z,8.40
2023-09-14T23:49:55.179Z,6.57
2023-09-14T23:52:24.592Z,8.65
2023-09-14T23:54:52.425Z,7.60
2023-09-14T23:57:19.841Z,8.25
2023-09-14T23:59:47.564Z,9.82
